createdAt,value
2022-09-28T00:01:24.409Z,78.77
2022-09-28T00:03:54.639Z,78.87
2022-09-28T00:06:24.707Z,78.42
2022-09-28T00:08:53.286Z,79.01
2022-09-28T00:11:22.430Z,79.41
2022-09-28T00:13:52.533Z,78.83
2022-09-28T00:16:22.368Z,78.32
2022-09-28T00:18:51.449Z,77.77
2022-09-28T00:21:27.062Z,78.20
2022-09-28T00:24:15.058Z,78.11
2022-09-28T00:26:54.300Z,78.16
2022-09-28T00:29:24.170Z,78.74
2022-09-28T00:32:02.357Z,78.90
2022-09-28T00:34:32.173Z,78.99
2022-09-28T00:36:59.933Z,79.38
2022-09-28T00:39:27.398Z,79.60
2022-09-28T00:41:55.107Z,80.21
2022-09-28T00:44:24.918Z,80.22
2022-09-28T00:47:03.757Z,80.45
2022-09-28T00:49:36.868Z,80.43
2022-09-28T00:52:05.904Z,80.61
2022-09-28T00:54:32.826Z,80.76
2022-09-28T00:57:01.978Z,80.54
2022-09-28T00:59:30.170Z,80.52
2022-09-28T01:01:57.071Z,80.56
2022-09-28T01:04:27.968Z,80.27
2022-09-28T01:06:58.153Z,80.16
2022-09-28T01:09:27.551Z,80.47
2022-09-28T01:11:55.350Z,80.30
2022-09-28T01:14:25.899Z,80.41
2022-09-28T01:17:01.527Z,80.44
2022-09-28T01:19:56.124Z,80.64
2022-09-28T01:22:34.842Z,79.90
2022-09-28T01:25:30.010Z,80.41
2022-09-28T01:28:06.714Z,80.26
2022-09-28T01:30:43.436Z,80.27
2022-09-28T01:33:14.697Z,80.29
2022-09-28T01:35:49.340Z,79.76
2022-09-28T01:38:30.286Z,79.75
2022-09-28T01:40:59.693Z,79.73
2022-09-28T01:43:28.884Z,80.13
2022-09-28T01:45:58.386Z,80.40
2022-09-28T01:48:51.047Z,80.05
2022-09-28T01:51:51.414Z,80.14
2022-09-28T01:55:01.659Z,80.00
2022-09-28T01:57:40.054Z,80.39
2022-09-28T02:00:09.083Z,80.76
2022-09-28T02:02:42.508Z,80.33
2022-09-28T02:05:20.840Z,80.27
2022-09-28T02:08:09.440Z,80.88
2022-09-28T02:10:45.060Z,80.87
2022-09-28T02:13:11.823Z,81.02
2022-09-28T02:16:16.544Z,80.74
2022-09-28T02:18:45.151Z,81.39
2022-09-28T02:21:18.234Z,81.36
2022-09-28T02:23:54.186Z,81.55
2022-09-28T02:26:25.022Z,82.07
2022-09-28T02:28:51.795Z,81.43
2022-09-28T02:31:19.071Z,81.54
2022-09-28T02:33:47.713Z,81.46
2022-09-28T02:36:15.062Z,81.55
2022-09-28T02:38:42.053Z,81.61
2022-09-28T02:41:33.986Z,82.02
2022-09-28T02:44:29.745Z,81.66
2022-09-28T02:47:01.373Z,81.30
2022-09-28T02:49:37.163Z,81.35
2022-09-28T02:52:48.344Z,81.62
2022-09-28T02:55:53.862Z,81.77
2022-09-28T02:58:39.125Z,82.24
2022-09-28T03:01:11.859Z,82.09
2022-09-28T03:04:04.953Z,82.30
2022-09-28T03:06:44.124Z,82.54
2022-09-28T03:09:25.970Z,83.02
2022-09-28T03:12:04.718Z,82.90
2022-09-28T03:14:31.526Z,82.82
2022-09-28T03:16:58.261Z,83.13
2022-09-28T03:19:30.728Z,83.37
2022-09-28T03:21:57.563Z,83.03
2022-09-28T03:24:24.433Z,83.18
2022-09-28T03:26:51.506Z,83.28
2022-09-28T03:29:20.392Z,83.58
2022-09-28T03:31:48.180Z,83.59
2022-09-28T03:34:15.466Z,83.21
2022-09-28T03:36:43.149Z,83.72
2022-09-28T03:39:10.079Z,83.91
2022-09-28T03:41:37.144Z,83.98
2022-09-28T03:44:04.242Z,83.79
2022-09-28T03:46:31.125Z,83.99
2022-09-28T03:48:59.485Z,84.26
2022-09-28T03:51:26.837Z,84.48
2022-09-28T03:53:53.687Z,84.26
2022-09-28T03:56:20.566Z,84.46
2022-09-28T03:58:47.392Z,84.18
2022-09-28T04:01:18.300Z,84.27
2022-09-28T04:03:45.964Z,84.50
2022-09-28T04:06:13.199Z,84.90
2022-09-28T04:08:40.189Z,85.02
2022-09-28T04:11:07.024Z,85.24
2022-09-28T04:13:35.266Z,84.87
2022-09-28T04:16:02.612Z,84.90
2022-09-28T04:18:29.656Z,84.62
2022-09-28T04:21:06.944Z,85.12
2022-09-28T04:23:40.201Z,85.28
2022-09-28T04:26:10.549Z,85.22
2022-09-28T04:28:55.813Z,85.52
2022-09-28T04:31:24.714Z,85.90
2022-09-28T04:33:51.669Z,85.56
2022-09-28T04:36:19.927Z,85.64
2022-09-28T04:38:53.083Z,85.55
2022-09-28T04:41:22.645Z,85.74
2022-09-28T04:43:50.621Z,85.77
2022-09-28T04:46:17.550Z,86.11
2022-09-28T04:48:44.860Z,85.99
2022-09-28T04:51:11.836Z,86.44
2022-09-28T04:53:40.120Z,86.26
2022-09-28T04:56:10.908Z,86.41
2022-09-28T04:58:38.571Z,86.35
2022-09-28T05:01:08.354Z,85.63
2022-09-28T05:03:44.546Z,85.71
2022-09-28T05:06:16.056Z,85.92
2022-09-28T05:08:43.247Z,85.66
2022-09-28T05:11:12.890Z,85.92
2022-09-28T05:13:42.258Z,85.43
2022-09-28T05:16:10.532Z,85.13
2022-09-28T05:18:37.456Z,85.17
2022-09-28T05:21:05.247Z,85.16
2022-09-28T05:23:40.782Z,85.13
2022-09-28T05:26:08.476Z,84.91
2022-09-28T05:28:35.264Z,84.74
2022-09-28T05:31:03.811Z,84.60
2022-09-28T05:33:41.833Z,84.83
2022-09-28T05:36:11.891Z,84.94
2022-09-28T05:38:38.850Z,84.55
2022-09-28T05:41:06.961Z,84.34
2022-09-28T05:43:38.613Z,83.72
2022-09-28T05:46:06.669Z,84.30
2022-09-28T05:48:33.722Z,84.28
2022-09-28T05:51:00.503Z,84.34
2022-09-28T05:53:27.568Z,84.16
2022-09-28T05:55:58.372Z,84.47
2022-09-28T05:58:25.384Z,84.48
2022-09-28T06:00:56.728Z,84.48
2022-09-28T06:03:24.477Z,84.74
2022-09-28T06:05:51.971Z,84.33
2022-09-28T06:08:18.873Z,84.56
2022-09-28T06:10:45.651Z,85.04
2022-09-28T06:13:12.568Z,84.76
2022-09-28T06:15:42.578Z,84.67
2022-09-28T06:18:16.992Z,84.84
2022-09-28T06:20:44.187Z,84.89
2022-09-28T06:23:12.773Z,85.04
2022-09-28T06:25:40.291Z,85.01
2022-09-28T06:28:11.075Z,84.87
2022-09-28T06:30:39.211Z,85.14
2022-09-28T06:33:08.496Z,85.25
2022-09-28T06:35:35.287Z,84.82
2022-09-28T06:38:02.819Z,84.79
2022-09-28T06:40:36.786Z,85.16
2022-09-28T06:43:10.637Z,85.10
2022-09-28T06:45:38.890Z,84.78
2022-09-28T06:48:06.605Z,84.79
2022-09-28T06:50:37.870Z,89.38
2022-09-28T06:53:09.660Z,91.55
2022-09-28T06:55:40.204Z,87.94
2022-09-28T06:58:10.517Z,85.08
2022-09-28T07:00:39.507Z,84.59
2022-09-28T07:03:17.557Z,84.07
2022-09-28T07:05:46.791Z,83.71
2022-09-28T07:08:15.350Z,84.17
2022-09-28T07:10:47.799Z,84.37
2022-09-28T07:13:36.321Z,84.18
2022-09-28T07:16:03.713Z,84.17
2022-09-28T07:18:30.608Z,83.87
2022-09-28T07:20:58.004Z,83.86
2022-09-28T07:23:31.049Z,83.69
2022-09-28T07:25:58.469Z,84.16
2022-09-28T07:28:25.622Z,83.75
2022-09-28T07:30:52.967Z,83.65
2022-09-28T07:33:19.924Z,84.29
2022-09-28T07:35:54.538Z,84.46
2022-09-28T07:38:22.124Z,83.45
2022-09-28T07:41:08.285Z,83.55
2022-09-28T07:43:41.819Z,83.71
2022-09-28T07:46:12.249Z,84.55
2022-09-28T07:48:43.112Z,84.17
2022-09-28T07:51:10.497Z,83.98
2022-09-28T07:53:48.371Z,83.98
2022-09-28T07:56:17.558Z,83.89
2022-09-28T07:58:44.379Z,84.13
2022-09-28T08:01:15.080Z,83.93
2022-09-28T08:03:47.284Z,83.47
2022-09-28T08:06:17.226Z,83.58
2022-09-28T08:08:44.933Z,83.62
2022-09-28T08:11:18.007Z,83.89
2022-09-28T08:13:46.606Z,83.50
2022-09-28T08:16:13.764Z,82.88
2022-09-28T08:18:40.657Z,83.04
2022-09-28T08:21:25.908Z,82.77
2022-09-28T08:23:53.218Z,82.68
2022-09-28T08:26:20.082Z,82.27
2022-09-28T08:28:47.965Z,82.46
2022-09-28T08:31:15.106Z,82.43
2022-09-28T08:33:43.076Z,82.09
2022-09-28T08:36:20.410Z,82.13
2022-09-28T08:38:48.072Z,82.13
2022-09-28T08:41:24.458Z,81.83
2022-09-28T08:44:00.725Z,81.65
2022-09-28T08:46:34.426Z,81.80
2022-09-28T08:49:26.856Z,81.39
2022-09-28T08:52:00.395Z,80.84
2022-09-28T08:55:01.934Z,80.13
2022-09-28T08:57:49.595Z,80.08
2022-09-28T09:00:45.829Z,80.91
2022-09-28T09:03:15.281Z,80.79
2022-09-28T09:06:03.762Z,79.80
2022-09-28T09:08:51.876Z,79.48
2022-09-28T09:11:38.518Z,79.04
2022-09-28T09:14:42.810Z,78.92
2022-09-28T09:17:31.240Z,77.13
2022-09-28T09:20:17.782Z,77.14
2022-09-28T09:23:00.157Z,77.75
2022-09-28T09:25:44.515Z,78.30
2022-09-28T09:28:36.349Z,78.82
2022-09-28T09:31:31.930Z,78.10
2022-09-28T09:34:18.063Z,77.30
2022-09-28T09:36:59.916Z,76.09
2022-09-28T09:39:45.480Z,74.56
2022-09-28T09:42:21.503Z,75.05
2022-09-28T09:45:25.941Z,74.56
2022-09-28T09:48:17.397Z,74.04
2022-09-28T09:50:53.754Z,74.51
2022-09-28T09:53:25.735Z,74.34
2022-09-28T09:56:00.110Z,74.40
2022-09-28T09:58:31.736Z,74.49
2022-09-28T10:01:08.266Z,74.63
2022-09-28T10:03:48.412Z,77.26
2022-09-28T10:06:22.218Z,83.81
2022-09-28T10:08:56.230Z,82.43
2022-09-28T10:11:31.879Z,77.81
2022-09-28T10:13:59.286Z,75.63
2022-09-28T10:16:26.208Z,75.33
2022-09-28T10:18:53.264Z,73.51
2022-09-28T10:21:23.361Z,73.39
2022-09-28T10:23:57.193Z,72.51
2022-09-28T10:26:37.906Z,69.81
2022-09-28T10:29:12.570Z,69.39
2022-09-28T10:31:44.270Z,69.18
2022-09-28T10:34:15.812Z,67.07
2022-09-28T10:37:10.001Z,64.75
2022-09-28T10:39:37.185Z,65.30
2022-09-28T10:42:09.084Z,65.25
2022-09-28T10:44:53.992Z,65.27
2022-09-28T10:47:23.535Z,65.65
2022-09-28T10:49:51.799Z,63.94
2022-09-28T10:52:40.571Z,64.23
2022-09-28T10:55:28.261Z,64.22
2022-09-28T10:57:55.513Z,63.96
2022-09-28T11:00:43.697Z,63.74
2022-09-28T11:03:24.251Z,64.29
2022-09-28T11:06:03.141Z,64.40
2022-09-28T11:08:36.374Z,64.96
2022-09-28T11:11:11.883Z,64.55
2022-09-28T11:13:53.796Z,64.54
2022-09-28T11:16:25.868Z,64.67
2022-09-28T11:18:53.168Z,64.31
2022-09-28T11:21:32.931Z,63.87
2022-09-28T11:24:19.487Z,63.98
2022-09-28T11:26:49.946Z,64.35
2022-09-28T11:29:37.747Z,64.06
2022-09-28T11:32:06.654Z,63.37
2022-09-28T11:34:58.073Z,63.77
2022-09-28T11:37:50.191Z,64.14
2022-09-28T11:40:38.939Z,64.29
2022-09-28T11:43:45.068Z,65.47
2022-09-28T11:46:26.921Z,64.57
2022-09-28T11:49:01.513Z,64.33
2022-09-28T11:51:32.149Z,64.05
2022-09-28T11:54:14.567Z,63.66
2022-09-28T11:56:48.017Z,64.23
2022-09-28T11:59:40.114Z,64.58
2022-09-28T12:02:46.185Z,64.99
2022-09-28T12:05:25.253Z,64.40
2022-09-28T12:07:59.421Z,64.06
2022-09-28T12:10:47.690Z,64.19
2022-09-28T12:13:22.980Z,63.83
2022-09-28T12:16:22.990Z,63.08
2022-09-28T12:18:48.614Z,62.41
2022-09-28T12:21:30.555Z,61.24
2022-09-28T12:24:06.648Z,61.56
2022-09-28T12:26:43.832Z,62.46
2022-09-28T12:29:16.149Z,61.29
2022-09-28T12:31:54.949Z,61.21
2022-09-28T12:34:22.836Z,61.26
2022-09-28T12:37:20.649Z,61.56
2022-09-28T12:40:06.772Z,62.05
2022-09-28T12:42:41.473Z,60.39
2022-09-28T12:45:27.873Z,60.41
2022-09-28T12:48:03.660Z,60.78
2022-09-28T12:50:57.061Z,60.56
2022-09-28T12:54:12.179Z,61.14
2022-09-28T12:56:53.851Z,61.15
2022-09-28T12:59:32.358Z,61.32
2022-09-28T13:02:40.548Z,61.27
2022-09-28T13:05:30.341Z,60.14
2022-09-28T13:08:15.372Z,60.51
2022-09-28T13:10:59.111Z,60.98
2022-09-28T13:14:18.518Z,62.37
2022-09-28T13:17:05.861Z,63.53
2022-09-28T13:19:55.216Z,59.65
2022-09-28T13:22:38.959Z,58.95
2022-09-28T13:25:17.099Z,58.85
2022-09-28T13:28:03.012Z,59.45
2022-09-28T13:30:31.294Z,59.91
2022-09-28T13:33:01.339Z,60.28
2022-09-28T13:35:28.747Z,59.76
2022-09-28T13:38:20.942Z,59.77
2022-09-28T13:41:06.347Z,62.48
2022-09-28T13:43:58.011Z,62.16
2022-09-28T13:46:56.357Z,59.79
2022-09-28T13:49:39.512Z,60.05
2022-09-28T13:52:24.186Z,58.90
2022-09-28T13:55:39.494Z,59.25
2022-09-28T13:59:09.369Z,58.61
2022-09-28T14:01:42.628Z,58.36
2022-09-28T14:04:16.357Z,58.66
2022-09-28T14:06:52.448Z,57.24
2022-09-28T14:09:28.171Z,57.39
2022-09-28T14:11:59.062Z,58.02
2022-09-28T14:14:30.743Z,58.56
2022-09-28T14:17:04.881Z,59.25
2022-09-28T14:19:35.244Z,57.91
2022-09-28T14:22:07.211Z,58.68
2022-09-28T14:24:46.626Z,57.46
2022-09-28T14:27:20.500Z,59.24
2022-09-28T14:29:54.337Z,57.29
2022-09-28T14:32:25.213Z,57.14
2022-09-28T14:34:57.880Z,57.99
2022-09-28T14:37:34.201Z,57.76
2022-09-28T14:40:20.161Z,57.57
2022-09-28T14:43:11.843Z,57.70
2022-09-28T14:45:41.327Z,58.79
2022-09-28T14:48:14.754Z,59.08
2022-09-28T14:50:42.260Z,59.73
2022-09-28T14:53:14.540Z,58.47
2022-09-28T14:55:50.834Z,58.71
2022-09-28T14:58:22.909Z,58.58
2022-09-28T15:00:56.531Z,59.46
2022-09-28T15:03:30.102Z,58.27
2022-09-28T15:06:03.534Z,58.73
2022-09-28T15:08:37.733Z,59.29
2022-09-28T15:11:05.871Z,59.44
2022-09-28T15:16:11.848Z,59.74
2022-09-28T15:18:45.444Z,58.78
2022-09-28T15:21:13.622Z,58.46
2022-09-28T15:23:44.539Z,57.89
2022-09-28T15:26:18.433Z,57.99
2022-09-28T15:28:46.248Z,57.96
2022-09-28T15:31:19.511Z,58.70
2022-09-28T15:34:05.752Z,60.06
2022-09-28T15:36:39.934Z,59.51
2022-09-28T15:39:13.808Z,59.94
2022-09-28T15:41:44.735Z,59.35
2022-09-28T15:44:13.617Z,59.43
2022-09-28T15:46:44.691Z,59.82
2022-09-28T15:49:18.900Z,58.70
2022-09-28T15:51:50.612Z,58.93
2022-09-28T15:54:25.543Z,59.67
2022-09-28T15:57:00.133Z,60.46
2022-09-28T15:59:35.570Z,59.23
2022-09-28T16:02:11.692Z,59.39
2022-09-28T16:04:40.977Z,60.71
2022-09-28T16:07:29.493Z,60.85
2022-09-28T16:10:01.289Z,60.15
2022-09-28T16:12:42.483Z,59.79
2022-09-28T16:15:18.642Z,60.01
2022-09-28T16:17:54.707Z,58.94
2022-09-28T16:20:29.195Z,59.55
2022-09-28T16:23:06.124Z,59.81
2022-09-28T16:25:37.738Z,60.91
2022-09-28T16:28:06.887Z,60.73
2022-09-28T16:30:35.026Z,60.62
2022-09-28T16:33:07.034Z,61.10
2022-09-28T16:35:40.767Z,61.26
2022-09-28T16:38:16.070Z,61.23
2022-09-28T16:40:58.898Z,60.79
2022-09-28T16:43:49.960Z,61.07
2022-09-28T16:46:23.728Z,61.31
2022-09-28T16:48:52.781Z,61.21
2022-09-28T16:51:23.223Z,61.92
2022-09-28T16:54:04.347Z,61.39
2022-09-28T16:56:33.580Z,61.39
2022-09-28T16:59:03.487Z,60.98
2022-09-28T17:01:31.873Z,61.05
2022-09-28T17:03:59.760Z,61.31
2022-09-28T17:06:28.165Z,61.96
2022-09-28T17:09:00.732Z,62.88
2022-09-28T17:11:28.201Z,62.93
2022-09-28T17:13:59.367Z,63.65
2022-09-28T17:17:03.811Z,63.89
2022-09-28T17:19:20.924Z,64.56
2022-09-28T17:21:49.977Z,63.67
2022-09-28T17:24:24.114Z,63.38
2022-09-28T17:26:55.990Z,63.29
2022-09-28T17:29:23.864Z,64.00
2022-09-28T17:31:50.667Z,64.62
2022-09-28T17:34:17.587Z,64.96
2022-09-28T17:36:45.618Z,65.65
2022-09-28T17:39:19.820Z,64.91
2022-09-28T17:41:46.944Z,65.54
2022-09-28T17:44:16.857Z,66.07
2022-09-28T17:46:50.965Z,66.13
2022-09-28T17:49:18.841Z,66.71
2022-09-28T17:51:45.698Z,67.38
2022-09-28T17:54:14.309Z,67.02
2022-09-28T17:56:42.577Z,67.34
2022-09-28T17:59:13.165Z,67.68
2022-09-28T18:01:40.750Z,67.58
2022-09-28T18:04:13.214Z,67.84
2022-09-28T18:06:45.840Z,67.81
2022-09-28T18:09:14.949Z,67.86
2022-09-28T18:11:44.493Z,68.22
2022-09-28T18:14:11.508Z,68.45
2022-09-28T18:16:38.345Z,68.87
2022-09-28T18:19:05.171Z,69.19
2022-09-28T18:21:33.003Z,69.15
2022-09-28T18:23:59.857Z,69.02
2022-09-28T18:26:26.653Z,69.54
2022-09-28T18:28:56.539Z,69.61
2022-09-28T18:31:23.497Z,69.21
2022-09-28T18:33:50.361Z,69.39
2022-09-28T18:36:17.211Z,69.91
2022-09-28T18:38:43.969Z,70.39
2022-09-28T18:41:16.025Z,70.40
2022-09-28T18:44:00.668Z,70.28
2022-09-28T18:46:29.271Z,70.26
2022-09-28T18:48:56.421Z,70.66
2022-09-28T18:51:23.457Z,70.02
2022-09-28T18:53:50.427Z,70.33
2022-09-28T18:56:18.489Z,70.41
2022-09-28T18:58:46.721Z,70.23
2022-09-28T19:01:33.845Z,70.13
2022-09-28T19:04:02.284Z,70.14
2022-09-28T19:06:30.094Z,69.95
2022-09-28T19:08:57.466Z,69.74
2022-09-28T19:11:25.515Z,70.03
2022-09-28T19:13:54.145Z,69.95
2022-09-28T19:16:24.289Z,70.06
2022-09-28T19:18:52.609Z,69.64
2022-09-28T19:21:19.811Z,69.55
2022-09-28T19:23:49.576Z,69.27
2022-09-28T19:26:21.098Z,69.20
2022-09-28T19:28:48.603Z,69.43
2022-09-28T19:31:15.578Z,69.32
2022-09-28T19:33:42.419Z,69.50
2022-09-28T19:36:13.305Z,69.75
2022-09-28T19:38:41.272Z,69.55
2022-09-28T19:41:51.470Z,69.32
2022-09-28T19:44:25.725Z,68.87
2022-09-28T19:47:04.990Z,69.08
2022-09-28T19:49:36.883Z,69.15
2022-09-28T19:52:16.169Z,69.48
2022-09-28T19:54:44.654Z,69.82
2022-09-28T19:57:16.163Z,69.94
2022-09-28T19:59:43.117Z,69.87
2022-09-28T20:02:10.990Z,70.36
2022-09-28T20:04:37.809Z,70.73
2022-09-28T20:07:05.253Z,70.51
2022-09-28T20:09:33.071Z,70.18
2022-09-28T20:11:59.937Z,70.13
2022-09-28T20:14:32.872Z,70.48
2022-09-28T20:17:00.917Z,70.22
2022-09-28T20:19:27.679Z,69.93
2022-09-28T20:21:55.020Z,70.16
2022-09-28T20:24:21.782Z,69.93
2022-09-28T20:26:49.755Z,70.08
2022-09-28T20:29:16.552Z,70.02
2022-09-28T20:31:44.218Z,69.85
2022-09-28T20:34:12.365Z,69.63
2022-09-28T20:36:43.338Z,70.33
2022-09-28T20:39:11.237Z,69.96
2022-09-28T20:41:38.106Z,69.59
2022-09-28T20:44:06.637Z,69.35
2022-09-28T20:46:36.945Z,69.69
2022-09-28T20:49:05.003Z,70.05
2022-09-28T20:51:32.272Z,69.69
2022-09-28T20:53:59.742Z,69.35
2022-09-28T20:56:29.205Z,70.12
2022-09-28T20:58:57.068Z,69.86
2022-09-28T21:01:26.542Z,69.76
2022-09-28T21:03:55.987Z,68.31
2022-09-28T21:06:26.186Z,67.93
2022-09-28T21:08:53.472Z,68.26
2022-09-28T21:11:23.628Z,67.99
2022-09-28T21:13:55.696Z,68.44
2022-09-28T21:16:22.469Z,68.58
2022-09-28T21:18:49.336Z,68.83
2022-09-28T21:21:18.357Z,69.11
2022-09-28T21:23:53.167Z,68.87
2022-09-28T21:26:25.220Z,69.15
2022-09-28T21:28:55.724Z,68.88
2022-09-28T21:31:28.515Z,68.93
2022-09-28T21:33:56.527Z,68.96
2022-09-28T21:36:23.309Z,68.53
2022-09-28T21:38:50.115Z,69.17
2022-09-28T21:41:17.395Z,69.47
2022-09-28T21:43:44.259Z,69.45
2022-09-28T21:46:11.476Z,69.77
2022-09-28T21:48:38.357Z,69.58
2022-09-28T21:51:07.879Z,70.15
2022-09-28T21:53:43.047Z,70.37
2022-09-28T21:56:11.831Z,70.15
2022-09-28T21:58:40.284Z,70.20
2022-09-28T22:01:15.665Z,70.50
2022-09-28T22:03:44.198Z,70.75
2022-09-28T22:06:11.534Z,70.59
2022-09-28T22:08:39.757Z,70.88
2022-09-28T22:11:12.461Z,70.22
2022-09-28T22:13:52.541Z,70.68
2022-09-28T22:16:22.356Z,70.14
2022-09-28T22:18:49.850Z,70.56
2022-09-28T22:21:23.587Z,70.42
2022-09-28T22:23:51.207Z,70.51
2022-09-28T22:26:23.715Z,70.89
2022-09-28T22:28:53.809Z,70.53
2022-09-28T22:31:24.007Z,70.53
2022-09-28T22:33:50.935Z,69.90
2022-09-28T22:36:17.938Z,69.68
2022-09-28T22:38:45.783Z,69.35
2022-09-28T22:41:16.050Z,69.40
2022-09-28T22:43:43.780Z,69.43
2022-09-28T22:46:16.876Z,69.16
2022-09-28T22:48:54.363Z,69.15
2022-09-28T22:51:22.271Z,69.05
2022-09-28T22:53:49.339Z,68.84
2022-09-28T22:56:19.018Z,68.65
2022-09-28T22:58:47.007Z,68.82
2022-09-28T23:01:18.723Z,69.09
2022-09-28T23:03:48.641Z,69.27
2022-09-28T23:06:17.983Z,69.04
2022-09-28T23:08:47.544Z,69.29
2022-09-28T23:11:15.820Z,69.42
2022-09-28T23:13:43.887Z,69.46
2022-09-28T23:16:15.174Z,69.52
2022-09-28T23:18:44.895Z,69.64
2022-09-28T23:21:16.328Z,69.53
2022-09-28T23:23:52.710Z,69.72
2022-09-28T23:26:23.098Z,69.82
2022-09-28T23:28:50.174Z,70.21
2022-09-28T23:31:28.608Z,70.27
2022-09-28T23:34:06.684Z,70.44
2022-09-28T23:36:34.564Z,70.59
2022-09-28T23:39:01.819Z,70.68
2022-09-28T23:41:28.950Z,70.93
2022-09-28T23:43:56.255Z,70.88
2022-09-28T23:46:23.605Z,70.88
2022-09-28T23:48:50.846Z,70.72
2022-09-28T23:51:17.685Z,70.76
2022-09-28T23:53:44.997Z,70.69
2022-09-28T23:56:12.514Z,71.04
2022-09-28T23:58:39.279Z,70.97
